Terminal Aerodrome Forecast
Issued by NWS Memphis, TN

Home | Current Version | Previous Version | Text Only | Print | Product List | Glossary On
Versions: 1 2 3 4 5 6 7 8 9 10 11 12 13 14
000
FTUS44 KMEG 162300
TAFMKL
TAF
KMKL 162339Z 1700/1724 01007KT P6SM BKN050
     FM170100 00000KT P6SM BKN050
      TEMPO 1708/1712 2SM BR
     FM171400 03004KT P6SM SCT035 BKN150
     FM171900 32006KT P6SM BKN035=

USA.gov is the U.S. government's official web portal to all federal, state and local government web resources and services.